sensor_id;sensor_type;location;lat;lon;timestamp;P1;durP1;ratioP1;P2;durP2;ratioP2
13404;SDS011;6773;51.192;7.024;2024-01-07T00:00:12;11.60;;;7.30;;
13404;SDS011;6773;51.192;7.024;2024-01-07T00:02:38;11.30;;;7.97;;
13404;SDS011;6773;51.192;7.024;2024-01-07T00:05:04;14.67;;;7.97;;
13404;SDS011;6773;51.192;7.024;2024-01-07T00:07:30;12.20;;;7.70;;
13404;SDS011;6773;51.192;7.024;2024-01-07T00:09:56;11.93;;;7.50;;
13404;SDS011;6773;51.192;7.024;2024-01-07T00:12:22;15.43;;;8.43;;
13404;SDS011;6773;51.192;7.024;2024-01-07T00:14:49;14.73;;;8.23;;
13404;SDS011;6773;51.192;7.024;2024-01-07T00:17:15;13.00;;;7.93;;
13404;SDS011;6773;51.192;7.024;2024-01-07T00:19:41;14.07;;;8.63;;
13404;SDS011;6773;51.192;7.024;2024-01-07T00:22:07;14.40;;;7.97;;
13404;SDS011;6773;51.192;7.024;2024-01-07T00:24:33;16.93;;;9.37;;
13404;SDS011;6773;51.192;7.024;2024-01-07T00:26:59;13.70;;;8.97;;
13404;SDS011;6773;51.192;7.024;2024-01-07T00:29:25;15.23;;;9.13;;
13404;SDS011;6773;51.192;7.024;2024-01-07T00:31:51;18.43;;;10.03;;
13404;SDS011;6773;51.192;7.024;2024-01-07T00:34:17;16.70;;;10.17;;
13404;SDS011;6773;51.192;7.024;2024-01-07T00:36:42;20.53;;;11.33;;
13404;SDS011;6773;51.192;7.024;2024-01-07T00:39:08;16.97;;;10.10;;
13404;SDS011;6773;51.192;7.024;2024-01-07T00:41:34;16.20;;;10.13;;
13404;SDS011;6773;51.192;7.024;2024-01-07T00:44:00;19.93;;;10.73;;
13404;SDS011;6773;51.192;7.024;2024-01-07T00:46:26;18.57;;;11.17;;
13404;SDS011;6773;51.192;7.024;2024-01-07T00:48:52;18.17;;;11.07;;
13404;SDS011;6773;51.192;7.024;2024-01-07T00:51:18;21.77;;;12.23;;
13404;SDS011;6773;51.192;7.024;2024-01-07T00:53:44;19.63;;;11.70;;
13404;SDS011;6773;51.192;7.024;2024-01-07T00:56:10;21.00;;;12.00;;
13404;SDS011;6773;51.192;7.024;2024-01-07T00:58:36;21.37;;;12.73;;
13404;SDS011;6773;51.192;7.024;2024-01-07T01:01:02;22.03;;;12.00;;
13404;SDS011;6773;51.192;7.024;2024-01-07T01:03:28;23.77;;;12.00;;
13404;SDS011;6773;51.192;7.024;2024-01-07T01:05:53;19.67;;;11.63;;
13404;SDS011;6773;51.192;7.024;2024-01-07T01:08:20;21.37;;;11.87;;
13404;SDS011;6773;51.192;7.024;2024-01-07T01:10:46;23.80;;;12.17;;
13404;SDS011;6773;51.192;7.024;2024-01-07T01:13:12;20.83;;;11.77;;
13404;SDS011;6773;51.192;7.024;2024-01-07T01:15:38;24.00;;;12.90;;
13404;SDS011;6773;51.192;7.024;2024-01-07T01:18:04;24.83;;;12.07;;
13404;SDS011;6773;51.192;7.024;2024-01-07T01:20:30;26.70;;;13.23;;
13404;SDS011;6773;51.192;7.024;2024-01-07T01:22:56;18.47;;;11.10;;
13404;SDS011;6773;51.192;7.024;2024-01-07T01:25:22;20.60;;;12.87;;
13404;SDS011;6773;51.192;7.024;2024-01-07T01:27:48;23.07;;;13.90;;
13404;SDS011;6773;51.192;7.024;2024-01-07T01:30:14;20.20;;;12.00;;
13404;SDS011;6773;51.192;7.024;2024-01-07T01:32:41;21.00;;;11.60;;
13404;SDS011;6773;51.192;7.024;2024-01-07T01:35:07;23.50;;;11.37;;
13404;SDS011;6773;51.192;7.024;2024-01-07T01:37:33;20.77;;;12.67;;
13404;SDS011;6773;51.192;7.024;2024-01-07T01:39:59;22.63;;;12.37;;
13404;SDS011;6773;51.192;7.024;2024-01-07T01:42:24;23.33;;;13.77;;
13404;SDS011;6773;51.192;7.024;2024-01-07T01:44:51;25.53;;;13.17;;
13404;SDS011;6773;51.192;7.024;2024-01-07T01:47:18;20.27;;;11.23;;
13404;SDS011;6773;51.192;7.024;2024-01-07T01:49:45;26.47;;;12.80;;
13404;SDS011;6773;51.192;7.024;2024-01-07T01:52:12;20.30;;;11.97;;
13404;SDS011;6773;51.192;7.024;2024-01-07T01:54:38;23.97;;;12.10;;
13404;SDS011;6773;51.192;7.024;2024-01-07T01:57:05;21.80;;;12.43;;
13404;SDS011;6773;51.192;7.024;2024-01-07T01:59:31;21.10;;;12.50;;
13404;SDS011;6773;51.192;7.024;2024-01-07T02:01:58;23.27;;;13.70;;
13404;SDS011;6773;51.192;7.024;2024-01-07T02:04:24;25.57;;;13.87;;
13404;SDS011;6773;51.192;7.024;2024-01-07T02:06:51;25.50;;;14.30;;
13404;SDS011;6773;51.192;7.024;2024-01-07T02:09:17;30.33;;;15.17;;
13404;SDS011;6773;51.192;7.024;2024-01-07T02:11:43;30.53;;;15.57;;
13404;SDS011;6773;51.192;7.024;2024-01-07T02:14:09;28.67;;;15.17;;
13404;SDS011;6773;51.192;7.024;2024-01-07T02:16:35;32.70;;;15.27;;
13404;SDS011;6773;51.192;7.024;2024-01-07T02:19:01;31.23;;;16.30;;
13404;SDS011;6773;51.192;7.024;2024-01-07T02:21:27;31.57;;;16.10;;
13404;SDS011;6773;51.192;7.024;2024-01-07T02:23:53;36.47;;;17.07;;
13404;SDS011;6773;51.192;7.024;2024-01-07T02:26:19;34.80;;;16.77;;
13404;SDS011;6773;51.192;7.024;2024-01-07T02:28:45;27.27;;;15.37;;
13404;SDS011;6773;51.192;7.024;2024-01-07T02:31:11;33.03;;;16.60;;
13404;SDS011;6773;51.192;7.024;2024-01-07T02:33:37;27.30;;;16.00;;
13404;SDS011;6773;51.192;7.024;2024-01-07T02:36:03;31.03;;;16.17;;
13404;SDS011;6773;51.192;7.024;2024-01-07T02:38:29;28.93;;;15.40;;
13404;SDS011;6773;51.192;7.024;2024-01-07T02:40:55;39.37;;;18.13;;
13404;SDS011;6773;51.192;7.024;2024-01-07T02:43:21;35.37;;;18.37;;
13404;SDS011;6773;51.192;7.024;2024-01-07T02:45:47;39.63;;;17.83;;
13404;SDS011;6773;51.192;7.024;2024-01-07T02:48:13;34.20;;;17.93;;
13404;SDS011;6773;51.192;7.024;2024-01-07T02:50:39;39.23;;;18.07;;
13404;SDS011;6773;51.192;7.024;2024-01-07T02:53:06;32.27;;;17.33;;
13404;SDS011;6773;51.192;7.024;2024-01-07T02:55:33;37.17;;;17.13;;
13404;SDS011;6773;51.192;7.024;2024-01-07T02:57:59;40.30;;;18.90;;
13404;SDS011;6773;51.192;7.024;2024-01-07T03:00:25;35.50;;;18.80;;
13404;SDS011;6773;51.192;7.024;2024-01-07T03:02:51;33.43;;;17.13;;
13404;SDS011;6773;51.192;7.024;2024-01-07T03:05:18;33.23;;;16.17;;
13404;SDS011;6773;51.192;7.024;2024-01-07T03:07:44;36.40;;;16.20;;
13404;SDS011;6773;51.192;7.024;2024-01-07T03:10:10;38.63;;;18.97;;
13404;SDS011;6773;51.192;7.024;2024-01-07T03:12:36;35.63;;;18.03;;
13404;SDS011;6773;51.192;7.024;2024-01-07T03:15:02;38.20;;;19.43;;
13404;SDS011;6773;51.192;7.024;2024-01-07T03:17:28;40.30;;;20.27;;
13404;SDS011;6773;51.192;7.024;2024-01-07T03:19:54;35.23;;;17.90;;
13404;SDS011;6773;51.192;7.024;2024-01-07T03:22:20;38.93;;;18.50;;
13404;SDS011;6773;51.192;7.024;2024-01-07T03:24:45;34.87;;;16.90;;
13404;SDS011;6773;51.192;7.024;2024-01-07T03:27:12;32.47;;;16.33;;
13404;SDS011;6773;51.192;7.024;2024-01-07T03:29:38;28.10;;;13.50;;
13404;SDS011;6773;51.192;7.024;2024-01-07T03:32:04;31.00;;;15.27;;
13404;SDS011;6773;51.192;7.024;2024-01-07T03:34:30;29.37;;;15.00;;
13404;SDS011;6773;51.192;7.024;2024-01-07T03:36:56;26.30;;;15.57;;
13404;SDS011;6773;51.192;7.024;2024-01-07T03:39:22;26.50;;;14.13;;
13404;SDS011;6773;51.192;7.024;2024-01-07T03:41:48;31.47;;;15.63;;
13404;SDS011;6773;51.192;7.024;2024-01-07T03:44:14;30.83;;;16.10;;
13404;SDS011;6773;51.192;7.024;2024-01-07T03:46:40;26.63;;;14.53;;
13404;SDS011;6773;51.192;7.024;2024-01-07T03:49:06;27.97;;;16.23;;
13404;SDS011;6773;51.192;7.024;2024-01-07T03:51:32;29.77;;;15.93;;
13404;SDS011;6773;51.192;7.024;2024-01-07T03:53:58;33.10;;;16.47;;
13404;SDS011;6773;51.192;7.024;2024-01-07T03:56:24;32.63;;;17.77;;
13404;SDS011;6773;51.192;7.024;2024-01-07T03:58:49;30.30;;;16.40;;
13404;SDS011;6773;51.192;7.024;2024-01-07T04:01:16;33.03;;;16.60;;
13404;SDS011;6773;51.192;7.024;2024-01-07T04:03:42;29.83;;;16.97;;
13404;SDS011;6773;51.192;7.024;2024-01-07T04:06:08;32.50;;;16.87;;
13404;SDS011;6773;51.192;7.024;2024-01-07T04:08:34;34.30;;;16.87;;
13404;SDS011;6773;51.192;7.024;2024-01-07T04:11:01;28.77;;;17.87;;
13404;SDS011;6773;51.192;7.024;2024-01-07T04:13:27;29.10;;;16.60;;
13404;SDS011;6773;51.192;7.024;2024-01-07T04:15:53;34.43;;;17.30;;
13404;SDS011;6773;51.192;7.024;2024-01-07T04:18:19;29.27;;;16.30;;
13404;SDS011;6773;51.192;7.024;2024-01-07T04:20:45;30.60;;;16.43;;
13404;SDS011;6773;51.192;7.024;2024-01-07T04:23:11;28.13;;;16.17;;
13404;SDS011;6773;51.192;7.024;2024-01-07T04:25:37;32.37;;;16.93;;
13404;SDS011;6773;51.192;7.024;2024-01-07T04:28:03;27.87;;;15.80;;
13404;SDS011;6773;51.192;7.024;2024-01-07T04:30:29;30.77;;;15.73;;
13404;SDS011;6773;51.192;7.024;2024-01-07T04:32:55;29.13;;;15.63;;
13404;SDS011;6773;51.192;7.024;2024-01-07T04:35:21;29.70;;;15.90;;
13404;SDS011;6773;51.192;7.024;2024-01-07T04:37:47;33.57;;;17.57;;
13404;SDS011;6773;51.192;7.024;2024-01-07T04:40:13;32.83;;;17.17;;
13404;SDS011;6773;51.192;7.024;2024-01-07T04:42:39;35.43;;;18.03;;
13404;SDS011;6773;51.192;7.024;2024-01-07T04:45:05;29.43;;;17.60;;
13404;SDS011;6773;51.192;7.024;2024-01-07T04:47:32;34.70;;;18.90;;
13404;SDS011;6773;51.192;7.024;2024-01-07T04:50:01;31.87;;;18.50;;
13404;SDS011;6773;51.192;7.024;2024-01-07T04:52:27;36.17;;;18.33;;
13404;SDS011;6773;51.192;7.024;2024-01-07T04:54:53;37.00;;;18.53;;
13404;SDS011;6773;51.192;7.024;2024-01-07T04:57:20;37.60;;;18.73;;
13404;SDS011;6773;51.192;7.024;2024-01-07T04:59:46;30.67;;;17.47;;
13404;SDS011;6773;51.192;7.024;2024-01-07T05:02:12;34.00;;;19.10;;
13404;SDS011;6773;51.192;7.024;2024-01-07T05:04:38;32.57;;;18.57;;
13404;SDS011;6773;51.192;7.024;2024-01-07T05:07:04;34.60;;;17.27;;
13404;SDS011;6773;51.192;7.024;2024-01-07T05:09:31;27.37;;;16.10;;
13404;SDS011;6773;51.192;7.024;2024-01-07T05:11:58;27.30;;;16.13;;
13404;SDS011;6773;51.192;7.024;2024-01-07T05:14:24;30.53;;;17.07;;
13404;SDS011;6773;51.192;7.024;2024-01-07T05:16:50;27.87;;;16.37;;
13404;SDS011;6773;51.192;7.024;2024-01-07T05:19:16;32.13;;;17.33;;
13404;SDS011;6773;51.192;7.024;2024-01-07T05:21:42;30.77;;;17.43;;
13404;SDS011;6773;51.192;7.024;2024-01-07T05:24:08;29.93;;;16.57;;
13404;SDS011;6773;51.192;7.024;2024-01-07T05:26:43;28.50;;;16.67;;
13404;SDS011;6773;51.192;7.024;2024-01-07T05:29:09;33.07;;;18.27;;
13404;SDS011;6773;51.192;7.024;2024-01-07T05:31:37;34.40;;;18.50;;
13404;SDS011;6773;51.192;7.024;2024-01-07T05:34:03;31.77;;;16.77;;
13404;SDS011;6773;51.192;7.024;2024-01-07T05:36:28;33.03;;;17.40;;
13404;SDS011;6773;51.192;7.024;2024-01-07T05:38:54;33.37;;;19.07;;
13404;SDS011;6773;51.192;7.024;2024-01-07T05:41:21;33.63;;;18.90;;
13404;SDS011;6773;51.192;7.024;2024-01-07T05:43:47;33.70;;;16.77;;
13404;SDS011;6773;51.192;7.024;2024-01-07T05:46:13;29.33;;;17.83;;
13404;SDS011;6773;51.192;7.024;2024-01-07T05:48:43;33.33;;;18.20;;
13404;SDS011;6773;51.192;7.024;2024-01-07T05:51:09;30.57;;;17.27;;
13404;SDS011;6773;51.192;7.024;2024-01-07T05:53:35;33.03;;;18.53;;
13404;SDS011;6773;51.192;7.024;2024-01-07T05:56:01;33.20;;;18.03;;
13404;SDS011;6773;51.192;7.024;2024-01-07T05:58:28;32.63;;;18.00;;
13404;SDS011;6773;51.192;7.024;2024-01-07T06:00:53;34.57;;;18.03;;
13404;SDS011;6773;51.192;7.024;2024-01-07T06:03:19;32.30;;;16.80;;
13404;SDS011;6773;51.192;7.024;2024-01-07T06:05:45;27.00;;;15.60;;
13404;SDS011;6773;51.192;7.024;2024-01-07T06:08:11;33.73;;;18.23;;
13404;SDS011;6773;51.192;7.024;2024-01-07T06:10:38;28.37;;;16.87;;
13404;SDS011;6773;51.192;7.024;2024-01-07T06:13:03;33.97;;;18.03;;
13404;SDS011;6773;51.192;7.024;2024-01-07T06:15:29;31.27;;;17.30;;
13404;SDS011;6773;51.192;7.024;2024-01-07T06:17:55;32.87;;;18.13;;
13404;SDS011;6773;51.192;7.024;2024-01-07T06:20:21;35.30;;;18.80;;
13404;SDS011;6773;51.192;7.024;2024-01-07T06:22:47;30.80;;;18.10;;
13404;SDS011;6773;51.192;7.024;2024-01-07T06:25:13;27.97;;;16.17;;
13404;SDS011;6773;51.192;7.024;2024-01-07T06:27:39;28.03;;;17.87;;
13404;SDS011;6773;51.192;7.024;2024-01-07T06:30:06;31.80;;;17.37;;
13404;SDS011;6773;51.192;7.024;2024-01-07T06:32:33;28.57;;;14.90;;
13404;SDS011;6773;51.192;7.024;2024-01-07T06:34:59;25.40;;;16.00;;
13404;SDS011;6773;51.192;7.024;2024-01-07T06:37:25;27.37;;;16.13;;
13404;SDS011;6773;51.192;7.024;2024-01-07T06:39:54;28.83;;;17.23;;
13404;SDS011;6773;51.192;7.024;2024-01-07T06:42:20;28.10;;;16.23;;
13404;SDS011;6773;51.192;7.024;2024-01-07T06:44:46;23.57;;;15.27;;
13404;SDS011;6773;51.192;7.024;2024-01-07T06:47:12;22.33;;;13.77;;
13404;SDS011;6773;51.192;7.024;2024-01-07T06:49:37;27.37;;;15.50;;
13404;SDS011;6773;51.192;7.024;2024-01-07T06:52:04;27.07;;;15.40;;
13404;SDS011;6773;51.192;7.024;2024-01-07T06:54:30;29.97;;;16.27;;
13404;SDS011;6773;51.192;7.024;2024-01-07T06:56:55;26.43;;;16.27;;
13404;SDS011;6773;51.192;7.024;2024-01-07T06:59:21;23.80;;;14.37;;
13404;SDS011;6773;51.192;7.024;2024-01-07T07:01:47;20.50;;;12.27;;
13404;SDS011;6773;51.192;7.024;2024-01-07T07:04:13;24.83;;;14.67;;
13404;SDS011;6773;51.192;7.024;2024-01-07T07:06:39;32.23;;;17.00;;
13404;SDS011;6773;51.192;7.024;2024-01-07T07:09:05;27.87;;;16.20;;
13404;SDS011;6773;51.192;7.024;2024-01-07T07:11:32;29.80;;;16.60;;
13404;SDS011;6773;51.192;7.024;2024-01-07T07:13:58;30.10;;;16.80;;
13404;SDS011;6773;51.192;7.024;2024-01-07T07:16:24;28.37;;;18.03;;
13404;SDS011;6773;51.192;7.024;2024-01-07T07:18:50;27.27;;;15.83;;
13404;SDS011;6773;51.192;7.024;2024-01-07T07:21:17;28.30;;;15.83;;
13404;SDS011;6773;51.192;7.024;2024-01-07T07:23:42;27.67;;;15.83;;
13404;SDS011;6773;51.192;7.024;2024-01-07T07:26:08;20.83;;;14.87;;
13404;SDS011;6773;51.192;7.024;2024-01-07T07:28:34;24.33;;;15.97;;
13404;SDS011;6773;51.192;7.024;2024-01-07T07:31:00;24.20;;;15.43;;
13404;SDS011;6773;51.192;7.024;2024-01-07T07:33:26;29.40;;;16.87;;
13404;SDS011;6773;51.192;7.024;2024-01-07T07:35:52;29.93;;;16.43;;
13404;SDS011;6773;51.192;7.024;2024-01-07T07:38:18;26.33;;;16.13;;
13404;SDS011;6773;51.192;7.024;2024-01-07T07:40:44;27.40;;;16.23;;
13404;SDS011;6773;51.192;7.024;2024-01-07T07:43:15;26.40;;;16.23;;
13404;SDS011;6773;51.192;7.024;2024-01-07T07:45:40;25.13;;;15.13;;
13404;SDS011;6773;51.192;7.024;2024-01-07T07:48:06;27.27;;;16.97;;
13404;SDS011;6773;51.192;7.024;2024-01-07T07:50:32;31.83;;;18.27;;
13404;SDS011;6773;51.192;7.024;2024-01-07T07:52:58;29.53;;;15.90;;
13404;SDS011;6773;51.192;7.024;2024-01-07T07:55:24;31.27;;;17.07;;
13404;SDS011;6773;51.192;7.024;2024-01-07T07:57:50;28.47;;;16.70;;
13404;SDS011;6773;51.192;7.024;2024-01-07T08:00:16;32.90;;;19.50;;
13404;SDS011;6773;51.192;7.024;2024-01-07T08:02:42;31.07;;;17.17;;
13404;SDS011;6773;51.192;7.024;2024-01-07T08:05:08;26.70;;;15.23;;
13404;SDS011;6773;51.192;7.024;2024-01-07T08:07:34;30.90;;;17.80;;
13404;SDS011;6773;51.192;7.024;2024-01-07T08:10:00;26.00;;;15.87;;
13404;SDS011;6773;51.192;7.024;2024-01-07T08:12:27;30.10;;;18.47;;
13404;SDS011;6773;51.192;7.024;2024-01-07T08:14:53;33.17;;;18.07;;
13404;SDS011;6773;51.192;7.024;2024-01-07T08:17:19;30.63;;;17.50;;
13404;SDS011;6773;51.192;7.024;2024-01-07T08:19:44;31.20;;;17.87;;
13404;SDS011;6773;51.192;7.024;2024-01-07T08:22:10;33.07;;;18.43;;
13404;SDS011;6773;51.192;7.024;2024-01-07T08:24:37;29.97;;;17.57;;
13404;SDS011;6773;51.192;7.024;2024-01-07T08:27:03;27.57;;;17.17;;
13404;SDS011;6773;51.192;7.024;2024-01-07T08:29:29;29.50;;;16.97;;
13404;SDS011;6773;51.192;7.024;2024-01-07T08:31:55;25.63;;;15.47;;
13404;SDS011;6773;51.192;7.024;2024-01-07T08:34:21;27.67;;;15.67;;
13404;SDS011;6773;51.192;7.024;2024-01-07T08:36:47;29.17;;;16.27;;
13404;SDS011;6773;51.192;7.024;2024-01-07T08:39:14;25.43;;;15.63;;
13404;SDS011;6773;51.192;7.024;2024-01-07T08:41:40;25.40;;;15.80;;
13404;SDS011;6773;51.192;7.024;2024-01-07T08:44:06;25.20;;;14.83;;
13404;SDS011;6773;51.192;7.024;2024-01-07T08:46:34;24.37;;;15.37;;
13404;SDS011;6773;51.192;7.024;2024-01-07T08:49:02;25.70;;;14.07;;
13404;SDS011;6773;51.192;7.024;2024-01-07T08:51:28;25.83;;;15.97;;
13404;SDS011;6773;51.192;7.024;2024-01-07T08:53:57;23.57;;;14.37;;
13404;SDS011;6773;51.192;7.024;2024-01-07T08:56:23;24.20;;;13.43;;
13404;SDS011;6773;51.192;7.024;2024-01-07T08:58:50;22.53;;;13.73;;
13404;SDS011;6773;51.192;7.024;2024-01-07T09:01:17;23.77;;;13.90;;
13404;SDS011;6773;51.192;7.024;2024-01-07T09:03:43;20.13;;;13.83;;
13404;SDS011;6773;51.192;7.024;2024-01-07T09:06:08;19.00;;;12.77;;
13404;SDS011;6773;51.192;7.024;2024-01-07T09:08:34;16.93;;;11.73;;
13404;SDS011;6773;51.192;7.024;2024-01-07T09:11:00;15.73;;;11.70;;
13404;SDS011;6773;51.192;7.024;2024-01-07T09:13:29;16.50;;;10.90;;
13404;SDS011;6773;51.192;7.024;2024-01-07T09:15:54;15.43;;;10.83;;
13404;SDS011;6773;51.192;7.024;2024-01-07T09:18:21;15.47;;;10.87;;
13404;SDS011;6773;51.192;7.024;2024-01-07T09:20:47;14.83;;;10.37;;
13404;SDS011;6773;51.192;7.024;2024-01-07T09:23:13;12.10;;;9.87;;
13404;SDS011;6773;51.192;7.024;2024-01-07T09:25:40;11.17;;;8.60;;
13404;SDS011;6773;51.192;7.024;2024-01-07T09:28:06;13.43;;;9.83;;
13404;SDS011;6773;51.192;7.024;2024-01-07T09:30:32;11.90;;;9.83;;
13404;SDS011;6773;51.192;7.024;2024-01-07T09:32:58;12.87;;;9.90;;
13404;SDS011;6773;51.192;7.024;2024-01-07T09:35:24;13.60;;;9.80;;
13404;SDS011;6773;51.192;7.024;2024-01-07T09:37:50;13.23;;;9.30;;
13404;SDS011;6773;51.192;7.024;2024-01-07T09:40:16;14.27;;;10.13;;
13404;SDS011;6773;51.192;7.024;2024-01-07T09:42:44;12.47;;;9.63;;
13404;SDS011;6773;51.192;7.024;2024-01-07T09:45:10;15.97;;;11.63;;
13404;SDS011;6773;51.192;7.024;2024-01-07T09:47:38;14.57;;;11.10;;
13404;SDS011;6773;51.192;7.024;2024-01-07T09:50:05;16.57;;;10.73;;
13404;SDS011;6773;51.192;7.024;2024-01-07T09:52:32;18.20;;;11.53;;
13404;SDS011;6773;51.192;7.024;2024-01-07T09:55:00;16.77;;;11.63;;
13404;SDS011;6773;51.192;7.024;2024-01-07T09:57:28;15.63;;;11.20;;
13404;SDS011;6773;51.192;7.024;2024-01-07T09:59:55;19.40;;;12.07;;
13404;SDS011;6773;51.192;7.024;2024-01-07T10:02:20;16.20;;;12.30;;
13404;SDS011;6773;51.192;7.024;2024-01-07T10:04:48;17.13;;;12.53;;
13404;SDS011;6773;51.192;7.024;2024-01-07T10:07:15;15.83;;;11.43;;
13404;SDS011;6773;51.192;7.024;2024-01-07T10:09:41;16.17;;;11.27;;
13404;SDS011;6773;51.192;7.024;2024-01-07T10:12:09;18.10;;;12.03;;
13404;SDS011;6773;51.192;7.024;2024-01-07T10:14:37;17.57;;;11.70;;
13404;SDS011;6773;51.192;7.024;2024-01-07T10:17:11;14.97;;;10.03;;
13404;SDS011;6773;51.192;7.024;2024-01-07T10:19:40;13.93;;;10.10;;
13404;SDS011;6773;51.192;7.024;2024-01-07T10:22:06;13.27;;;9.33;;
13404;SDS011;6773;51.192;7.024;2024-01-07T10:24:36;16.10;;;10.83;;
13404;SDS011;6773;51.192;7.024;2024-01-07T10:27:05;17.70;;;11.33;;
13404;SDS011;6773;51.192;7.024;2024-01-07T10:29:31;17.23;;;11.67;;
13404;SDS011;6773;51.192;7.024;2024-01-07T10:31:57;17.03;;;12.43;;
13404;SDS011;6773;51.192;7.024;2024-01-07T10:34:23;18.03;;;12.23;;
13404;SDS011;6773;51.192;7.024;2024-01-07T10:36:51;15.47;;;11.07;;
13404;SDS011;6773;51.192;7.024;2024-01-07T10:39:19;11.90;;;9.33;;
13404;SDS011;6773;51.192;7.024;2024-01-07T10:41:45;14.43;;;10.73;;
13404;SDS011;6773;51.192;7.024;2024-01-07T10:44:12;14.07;;;9.30;;
13404;SDS011;6773;51.192;7.024;2024-01-07T10:46:38;15.27;;;10.00;;
13404;SDS011;6773;51.192;7.024;2024-01-07T10:49:07;13.90;;;9.73;;
13404;SDS011;6773;51.192;7.024;2024-01-07T10:51:35;11.17;;;9.07;;
13404;SDS011;6773;51.192;7.024;2024-01-07T10:54:01;13.80;;;8.93;;
13404;SDS011;6773;51.192;7.024;2024-01-07T10:56:38;13.70;;;9.47;;
13404;SDS011;6773;51.192;7.024;2024-01-07T10:59:10;13.37;;;9.13;;
13404;SDS011;6773;51.192;7.024;2024-01-07T11:01:36;12.67;;;10.10;;
13404;SDS011;6773;51.192;7.024;2024-01-07T11:04:06;11.10;;;8.97;;
13404;SDS011;6773;51.192;7.024;2024-01-07T11:09:38;7.93;;;7.13;;
13404;SDS011;6773;51.192;7.024;2024-01-07T11:12:05;12.13;;;8.83;;
13404;SDS011;6773;51.192;7.024;2024-01-07T11:14:36;9.83;;;7.60;;
13404;SDS011;6773;51.192;7.024;2024-01-07T11:17:04;11.10;;;7.40;;
13404;SDS011;6773;51.192;7.024;2024-01-07T11:19:30;11.03;;;8.50;;
13404;SDS011;6773;51.192;7.024;2024-01-07T11:24:52;9.30;;;7.23;;
13404;SDS011;6773;51.192;7.024;2024-01-07T11:27:21;10.90;;;7.87;;
13404;SDS011;6773;51.192;7.024;2024-01-07T11:29:53;10.57;;;7.30;;
13404;SDS011;6773;51.192;7.024;2024-01-07T11:32:21;9.33;;;6.77;;
13404;SDS011;6773;51.192;7.024;2024-01-07T11:34:48;15.20;;;8.63;;
13404;SDS011;6773;51.192;7.024;2024-01-07T11:37:17;12.47;;;7.63;;
13404;SDS011;6773;51.192;7.024;2024-01-07T11:39:48;14.77;;;9.43;;
13404;SDS011;6773;51.192;7.024;2024-01-07T11:42:16;10.17;;;8.30;;
13404;SDS011;6773;51.192;7.024;2024-01-07T11:44:46;11.63;;;8.53;;
13404;SDS011;6773;51.192;7.024;2024-01-07T11:47:13;12.60;;;7.27;;
13404;SDS011;6773;51.192;7.024;2024-01-07T11:49:39;9.77;;;8.60;;
13404;SDS011;6773;51.192;7.024;2024-01-07T11:52:05;8.33;;;7.07;;
13404;SDS011;6773;51.192;7.024;2024-01-07T11:54:31;16.73;;;8.87;;
13404;SDS011;6773;51.192;7.024;2024-01-07T11:56:57;10.07;;;7.87;;
13404;SDS011;6773;51.192;7.024;2024-01-07T11:59:23;9.93;;;7.67;;
13404;SDS011;6773;51.192;7.024;2024-01-07T12:01:49;11.23;;;8.00;;
13404;SDS011;6773;51.192;7.024;2024-01-07T12:04:14;8.83;;;6.37;;
13404;SDS011;6773;51.192;7.024;2024-01-07T12:06:40;9.37;;;7.00;;
13404;SDS011;6773;51.192;7.024;2024-01-07T12:09:06;10.33;;;6.93;;
13404;SDS011;6773;51.192;7.024;2024-01-07T12:11:33;15.10;;;6.43;;
13404;SDS011;6773;51.192;7.024;2024-01-07T12:13:59;9.10;;;7.03;;
13404;SDS011;6773;51.192;7.024;2024-01-07T12:16:25;8.07;;;6.17;;
13404;SDS011;6773;51.192;7.024;2024-01-07T12:18:51;8.53;;;6.40;;
13404;SDS011;6773;51.192;7.024;2024-01-07T12:21:20;13.43;;;6.50;;
13404;SDS011;6773;51.192;7.024;2024-01-07T12:23:47;7.03;;;6.30;;
13404;SDS011;6773;51.192;7.024;2024-01-07T12:26:15;10.20;;;6.80;;
13404;SDS011;6773;51.192;7.024;2024-01-07T12:28:41;9.63;;;7.53;;
13404;SDS011;6773;51.192;7.024;2024-01-07T12:31:07;8.90;;;6.83;;
13404;SDS011;6773;51.192;7.024;2024-01-07T12:33:33;7.63;;;6.67;;
13404;SDS011;6773;51.192;7.024;2024-01-07T12:35:59;9.53;;;6.80;;
13404;SDS011;6773;51.192;7.024;2024-01-07T12:38:25;7.53;;;6.60;;
13404;SDS011;6773;51.192;7.024;2024-01-07T12:40:55;8.60;;;6.73;;
13404;SDS011;6773;51.192;7.024;2024-01-07T12:43:21;9.30;;;7.27;;
13404;SDS011;6773;51.192;7.024;2024-01-07T12:45:48;7.00;;;6.00;;
13404;SDS011;6773;51.192;7.024;2024-01-07T12:48:14;7.43;;;5.83;;
13404;SDS011;6773;51.192;7.024;2024-01-07T12:50:40;7.13;;;6.53;;
13404;SDS011;6773;51.192;7.024;2024-01-07T12:53:06;7.73;;;6.63;;
13404;SDS011;6773;51.192;7.024;2024-01-07T12:55:32;8.10;;;6.23;;
13404;SDS011;6773;51.192;7.024;2024-01-07T12:57:58;7.83;;;6.50;;
13404;SDS011;6773;51.192;7.024;2024-01-07T13:00:24;7.83;;;6.23;;
13404;SDS011;6773;51.192;7.024;2024-01-07T13:02:51;8.17;;;5.80;;
13404;SDS011;6773;51.192;7.024;2024-01-07T13:05:18;8.70;;;5.97;;
13404;SDS011;6773;51.192;7.024;2024-01-07T13:07:44;7.07;;;5.80;;
13404;SDS011;6773;51.192;7.024;2024-01-07T13:10:10;6.80;;;6.00;;
13404;SDS011;6773;51.192;7.024;2024-01-07T13:12:36;6.73;;;6.13;;
13404;SDS011;6773;51.192;7.024;2024-01-07T13:15:02;8.73;;;5.57;;
13404;SDS011;6773;51.192;7.024;2024-01-07T13:17:29;7.27;;;5.67;;
13404;SDS011;6773;51.192;7.024;2024-01-07T13:19:58;7.47;;;6.37;;
13404;SDS011;6773;51.192;7.024;2024-01-07T13:22:24;10.07;;;6.00;;
13404;SDS011;6773;51.192;7.024;2024-01-07T13:24:50;5.57;;;5.07;;
13404;SDS011;6773;51.192;7.024;2024-01-07T13:27:16;7.73;;;6.70;;
13404;SDS011;6773;51.192;7.024;2024-01-07T13:29:46;9.43;;;6.00;;
13404;SDS011;6773;51.192;7.024;2024-01-07T13:32:12;7.13;;;6.43;;
13404;SDS011;6773;51.192;7.024;2024-01-07T13:34:42;6.40;;;5.80;;
13404;SDS011;6773;51.192;7.024;2024-01-07T13:37:08;7.40;;;6.20;;
13404;SDS011;6773;51.192;7.024;2024-01-07T13:39:35;6.33;;;5.70;;
13404;SDS011;6773;51.192;7.024;2024-01-07T13:42:01;5.83;;;5.27;;
13404;SDS011;6773;51.192;7.024;2024-01-07T13:44:28;6.87;;;5.77;;
13404;SDS011;6773;51.192;7.024;2024-01-07T13:46:55;7.93;;;5.50;;
13404;SDS011;6773;51.192;7.024;2024-01-07T13:49:21;4.97;;;4.47;;
13404;SDS011;6773;51.192;7.024;2024-01-07T13:51:47;7.70;;;5.37;;
13404;SDS011;6773;51.192;7.024;2024-01-07T13:54:13;4.80;;;4.30;;
13404;SDS011;6773;51.192;7.024;2024-01-07T13:56:40;5.63;;;5.10;;
13404;SDS011;6773;51.192;7.024;2024-01-07T13:59:09;6.03;;;5.43;;
13404;SDS011;6773;51.192;7.024;2024-01-07T14:01:36;5.77;;;5.27;;
13404;SDS011;6773;51.192;7.024;2024-01-07T14:04:02;5.47;;;4.87;;
13404;SDS011;6773;51.192;7.024;2024-01-07T14:06:28;6.23;;;5.63;;
13404;SDS011;6773;51.192;7.024;2024-01-07T14:08:54;5.80;;;5.30;;
13404;SDS011;6773;51.192;7.024;2024-01-07T14:11:20;5.10;;;4.60;;
13404;SDS011;6773;51.192;7.024;2024-01-07T14:13:46;6.03;;;4.97;;
13404;SDS011;6773;51.192;7.024;2024-01-07T14:16:13;5.27;;;4.53;;
13404;SDS011;6773;51.192;7.024;2024-01-07T14:18:39;4.03;;;3.73;;
13404;SDS011;6773;51.192;7.024;2024-01-07T14:21:05;4.60;;;4.20;;
13404;SDS011;6773;51.192;7.024;2024-01-07T14:23:31;4.30;;;4.00;;
13404;SDS011;6773;51.192;7.024;2024-01-07T14:25:58;3.87;;;3.57;;
13404;SDS011;6773;51.192;7.024;2024-01-07T14:28:24;5.13;;;3.57;;
13404;SDS011;6773;51.192;7.024;2024-01-07T14:30:50;6.70;;;4.13;;
13404;SDS011;6773;51.192;7.024;2024-01-07T14:33:17;4.30;;;3.90;;
13404;SDS011;6773;51.192;7.024;2024-01-07T14:35:43;3.80;;;3.40;;
13404;SDS011;6773;51.192;7.024;2024-01-07T14:38:09;4.20;;;3.80;;
13404;SDS011;6773;51.192;7.024;2024-01-07T14:40:35;4.43;;;4.07;;